Teynham, United Kingdom
Current Conditions -  °F | °C
As of 7:50 PM on Sunday 21 Dec 2014 (Local Time) from EGMC Reporting Station
Broken Clouds Broken Clouds  
Wind Chill: 52°   Ceiling: 1700
Heat Index: 52°   Visibility: 6mi
Dew Point: 45°   Wind: 17mph
Humidity: 76%   Direction: 230°SW
Pressure: 30.18"   Gusts: NA
Location:  51.33°N, 0.81°E
Report Text: EGMC 211950Z 23015KT 9999 BKN017 11/07 Q1022
Loading
Personal Weather Stations






























Interactive Weather Map New forecast layout! Learn more

10-Day Weather Forecast

Advertisements
Track Severe Weather on mobile